Time;durP1;ratioP1;P1;durP2;ratioP2;P2;SDS_P1;SDS_P2;PMS_P1;PMS_P2;Temp;Humidity;BMP_temperature;BMP_pressure;BME280_temperature;BME280_humidity;BME280_pressure;Samples;Min_cycle;Max_cycle;Signal;HPM_P1;HPM_P2
2023/12/23 00:00:23;;;;;;;12.07;11.67;;;10.30;99.90;;;;;;5124293;27;20223;-63
2023/12/23 00:02:50;;;;;;;11.90;11.40;;;10.30;99.90;;;;;;5113504;28;20284;-63
2023/12/23 00:05:18;;;;;;;11.93;11.53;;;10.40;99.90;;;;;;5112869;27;20202;-63
2023/12/23 00:07:45;;;;;;;12.50;12.00;;;10.30;99.90;;;;;;5113770;27;20269;-63
2023/12/23 00:10:12;;;;;;;12.02;11.52;;;10.30;99.90;;;;;;5113304;27;20221;-63
2023/12/23 00:12:39;;;;;;;11.98;11.57;;;10.30;99.90;;;;;;5116944;27;20601;-62
2023/12/23 00:15:06;;;;;;;13.17;12.70;;;10.30;99.90;;;;;;5113001;28;20209;-62
2023/12/23 00:17:35;;;;;;;11.90;11.50;;;10.30;99.90;;;;;;5115305;28;20217;-63
2023/12/23 00:20:02;;;;;;;11.90;11.50;;;10.30;99.90;;;;;;5109639;27;20227;-63
2023/12/23 00:22:28;;;;;;;11.73;11.33;;;10.30;99.90;;;;;;5115780;28;20205;-62
2023/12/23 00:24:55;;;;;;;11.13;10.73;;;10.30;99.90;;;;;;5111152;27;20246;-63
2023/12/23 00:27:22;;;;;;;11.97;11.57;;;10.30;99.90;;;;;;5115070;28;20200;-62
2023/12/23 00:29:49;;;;;;;11.80;11.40;;;10.30;99.90;;;;;;5113312;28;20224;-63
2023/12/23 00:32:15;;;;;;;11.80;11.40;;;10.30;99.90;;;;;;5114449;28;20201;-64
2023/12/23 00:34:43;;;;;;;11.53;11.13;;;10.30;99.90;;;;;;5113367;27;20541;-61
2023/12/23 00:37:10;;;;;;;11.40;11.00;;;10.30;99.90;;;;;;5111494;28;20198;-62
2023/12/23 00:39:39;;;;;;;11.77;11.37;;;10.30;99.90;;;;;;5113948;27;20226;-62
2023/12/23 00:42:06;;;;;;;11.30;10.90;;;10.30;99.90;;;;;;5109503;28;20546;-62
2023/12/23 00:44:32;;;;;;;11.90;11.50;;;10.30;99.90;;;;;;5116922;28;20213;-63
2023/12/23 00:46:59;;;;;;;11.93;11.53;;;10.30;99.90;;;;;;5108340;27;20202;-63
2023/12/23 00:49:26;;;;;;;12.27;11.87;;;10.30;99.90;;;;;;5110252;28;20644;-62
2023/12/23 00:51:54;;;;;;;12.40;11.93;;;10.30;99.90;;;;;;5124881;27;20202;-62
2023/12/23 00:54:20;;;;;;;11.50;11.10;;;10.30;99.90;;;;;;5127491;27;20201;-63
2023/12/23 00:56:47;;;;;;;11.73;11.33;;;10.30;99.90;;;;;;5123326;27;20202;-63
2023/12/23 00:59:14;;;;;;;21.20;20.33;;;10.30;99.90;;;;;;5113173;28;20233;-63
2023/12/23 01:01:43;;;;;;;11.40;11.00;;;10.30;99.90;;;;;;5114183;28;20213;-65
2023/12/23 01:04:09;;;;;;;11.87;11.47;;;10.30;99.90;;;;;;5112002;28;20205;-63
2023/12/23 01:06:36;;;;;;;12.10;11.70;;;10.20;99.90;;;;;;5116451;27;20259;-63
2023/12/23 01:09:05;;;;;;;13.30;12.80;;;10.20;99.90;;;;;;5119884;27;20214;-63
2023/12/23 01:11:32;;;;;;;13.00;12.60;;;10.20;99.90;;;;;;5117545;27;20213;-63
2023/12/23 01:13:58;;;;;;;12.50;12.10;;;10.10;99.90;;;;;;5114643;28;20216;-64
2023/12/23 01:16:25;;;;;;;12.60;12.10;;;10.10;99.90;;;;;;5108058;27;20202;-62
2023/12/23 01:18:52;;;;;;;12.63;12.23;;;10.10;99.90;;;;;;5125082;27;20240;-63
2023/12/23 01:21:20;;;;;;;12.70;12.30;;;10.10;99.90;;;;;;5118930;27;20218;-63
2023/12/23 01:23:47;;;;;;;13.43;12.93;;;10.10;99.90;;;;;;5113711;27;20281;-63
2023/12/23 01:26:15;;;;;;;12.63;12.13;;;10.10;99.90;;;;;;5115405;27;20198;-62
2023/12/23 01:28:41;;;;;;;13.10;12.70;;;10.10;99.90;;;;;;5121421;27;20233;-63
2023/12/23 01:31:08;;;;;;;14.27;13.77;;;10.10;99.90;;;;;;5116882;27;20209;-63
2023/12/23 01:33:35;;;;;;;13.43;12.97;;;10.10;99.90;;;;;;5112163;28;20660;-63
2023/12/23 01:36:05;;;;;;;13.57;13.07;;;10.00;99.90;;;;;;5112199;28;20202;-63
2023/12/23 01:38:32;;;;;;;13.80;13.30;;;10.00;99.90;;;;;;5117111;27;20274;-62
2023/12/23 01:40:58;;;;;;;13.95;13.45;;;10.00;99.90;;;;;;5111055;28;20574;-63
2023/12/23 01:43:27;;;;;;;13.30;12.90;;;10.00;99.90;;;;;;5110060;28;20217;-62
2023/12/23 01:46:00;;;;;;;14.33;13.83;;;10.00;99.90;;;;;;5112675;28;20630;-63
2023/12/23 01:48:28;;;;;;;13.77;13.27;;;10.00;99.90;;;;;;5112684;27;20194;-63
2023/12/23 01:50:57;;;;;;;13.73;13.23;;;10.00;99.90;;;;;;5119273;27;20205;-64
2023/12/23 01:53:25;;;;;;;14.17;13.67;;;9.90;99.90;;;;;;5119026;27;20202;-64
2023/12/23 01:55:53;;;;;;;15.30;14.73;;;9.90;99.90;;;;;;5112193;28;20209;-66
2023/12/23 01:58:20;;;;;;;14.27;13.77;;;9.90;99.90;;;;;;5112181;28;20209;-63
2023/12/23 02:00:48;;;;;;;15.50;15.00;;;9.90;99.90;;;;;;5113687;28;20221;-63
2023/12/23 02:03:15;;;;;;;14.23;13.73;;;9.90;99.90;;;;;;5116592;27;20212;-64
2023/12/23 02:05:45;;;;;;;14.37;13.87;;;9.80;99.90;;;;;;5110394;28;20323;-64
2023/12/23 02:08:12;;;;;;;14.57;14.07;;;9.80;99.90;;;;;;5110899;28;20239;-64
2023/12/23 02:10:39;;;;;;;14.23;13.73;;;9.80;99.90;;;;;;5110093;27;20223;-65
2023/12/23 02:13:14;;;;;;;14.47;13.97;;;9.80;99.90;;;;;;5108717;28;20205;-65
2023/12/23 02:15:43;;;;;;;14.13;13.63;;;9.80;99.90;;;;;;5115191;27;20651;-64
2023/12/23 02:18:11;;;;;;;14.83;14.33;;;9.80;99.90;;;;;;5116165;27;20523;-65
2023/12/23 02:20:38;;;;;;;13.90;13.40;;;9.80;99.90;;;;;;5111642;27;20226;-64
2023/12/23 02:23:06;;;;;;;13.33;12.93;;;9.80;99.90;;;;;;5112726;28;20206;-65
2023/12/23 02:25:33;;;;;;;14.40;13.90;;;9.80;99.90;;;;;;5111014;28;20204;-64
2023/12/23 02:28:04;;;;;;;14.07;13.57;;;9.80;99.90;;;;;;5113388;28;20210;-64
2023/12/23 02:30:33;;;;;;;15.00;14.50;;;9.90;99.90;;;;;;5112387;27;20218;-66
2023/12/23 02:33:00;;;;;;;15.03;14.53;;;9.80;99.90;;;;;;5110539;28;20632;-64
2023/12/23 02:35:28;;;;;;;14.73;14.23;;;9.80;99.90;;;;;;5113398;28;20202;-64
2023/12/23 02:37:55;;;;;;;14.50;14.00;;;9.70;99.90;;;;;;5111699;28;20198;-63
2023/12/23 02:40:23;;;;;;;14.30;13.80;;;9.70;99.90;;;;;;5109084;28;20222;-65
2023/12/23 02:42:49;;;;;;;15.60;15.10;;;9.70;99.90;;;;;;5107655;28;20206;-65
2023/12/23 02:45:16;;;;;;;14.47;13.97;;;9.70;99.90;;;;;;5120407;28;20618;-65
2023/12/23 02:47:43;;;;;;;14.70;14.20;;;9.70;99.90;;;;;;5123271;28;20202;-65
2023/12/23 02:50:10;;;;;;;14.37;13.87;;;9.70;99.90;;;;;;5123462;28;20226;-65
2023/12/23 02:52:37;;;;;;;13.97;13.47;;;9.70;99.90;;;;;;5125796;28;20265;-64
2023/12/23 02:55:04;;;;;;;15.07;14.57;;;9.70;99.90;;;;;;5125701;28;20202;-65
2023/12/23 02:57:32;;;;;;;12.87;12.47;;;9.70;99.90;;;;;;5123641;28;20218;-65
2023/12/23 02:59:59;;;;;;;13.60;13.10;;;9.70;99.90;;;;;;5123833;28;20217;-66
2023/12/23 03:02:25;;;;;;;12.63;12.23;;;9.70;99.90;;;;;;5123239;28;20205;-64
2023/12/23 03:04:52;;;;;;;13.70;13.20;;;9.80;99.90;;;;;;5115370;28;20214;-65
2023/12/23 03:07:19;;;;;;;13.70;13.20;;;9.80;99.90;;;;;;5123131;28;20210;-65
2023/12/23 03:09:45;;;;;;;13.83;13.33;;;9.80;99.90;;;;;;5123604;28;20236;-66
2023/12/23 03:12:12;;;;;;;13.63;13.13;;;9.70;99.90;;;;;;5117426;28;20206;-65
2023/12/23 03:14:41;;;;;;;12.97;12.57;;;9.80;99.90;;;;;;5111777;28;20625;-64
2023/12/23 03:17:07;;;;;;;13.23;12.83;;;9.80;99.90;;;;;;5110067;27;20217;-65
2023/12/23 03:19:34;;;;;;;13.77;13.27;;;9.80;99.90;;;;;;5110706;28;20232;-66
2023/12/23 03:22:01;;;;;;;14.17;13.67;;;9.80;99.90;;;;;;5109587;28;20222;-64
2023/12/23 03:24:27;;;;;;;14.23;13.73;;;9.80;99.90;;;;;;5112436;28;20636;-64
2023/12/23 03:26:54;;;;;;;13.90;13.40;;;9.80;99.90;;;;;;5111939;28;20209;-64
2023/12/23 03:29:21;;;;;;;14.30;13.80;;;9.80;99.90;;;;;;5109283;28;20245;-64
2023/12/23 03:31:49;;;;;;;13.20;12.80;;;9.80;99.90;;;;;;5110967;28;20202;-65
2023/12/23 03:34:15;;;;;;;13.87;13.37;;;9.80;99.90;;;;;;5107330;28;20669;-64
2023/12/23 03:36:42;;;;;;;12.97;12.57;;;9.80;99.90;;;;;;5107702;28;20221;-64
2023/12/23 03:39:09;;;;;;;13.00;12.60;;;9.80;99.90;;;;;;5111959;28;20221;-66
2023/12/23 03:41:36;;;;;;;13.57;13.07;;;9.80;99.90;;;;;;5106856;28;20709;-64
2023/12/23 03:44:02;;;;;;;13.27;12.87;;;9.80;99.90;;;;;;5111497;28;20222;-64
2023/12/23 03:46:30;;;;;;;12.90;12.50;;;9.80;99.90;;;;;;5110028;28;20214;-65
2023/12/23 03:48:58;;;;;;;13.80;13.30;;;9.80;99.90;;;;;;5111520;27;20316;-68
2023/12/23 03:51:24;;;;;;;14.20;13.70;;;9.80;99.90;;;;;;5111407;28;20201;-63
2023/12/23 03:53:51;;;;;;;14.13;13.63;;;9.70;99.90;;;;;;5107971;28;20221;-65
2023/12/23 03:56:18;;;;;;;15.30;14.80;;;9.70;99.90;;;;;;5108137;28;20285;-64
2023/12/23 03:58:45;;;;;;;13.53;13.03;;;9.70;99.90;;;;;;5111615;28;20222;-65
2023/12/23 04:01:15;;;;;;;14.73;14.23;;;9.70;99.90;;;;;;5111548;28;20224;-64
2023/12/23 04:03:42;;;;;;;15.73;15.23;;;9.70;99.90;;;;;;5111684;28;20221;-64
2023/12/23 04:06:11;;;;;;;14.50;14.00;;;9.70;99.90;;;;;;5108631;28;20551;-65
2023/12/23 04:08:38;;;;;;;16.20;15.60;;;9.70;99.90;;;;;;5107208;28;20242;-65
2023/12/23 04:11:05;;;;;;;14.17;13.67;;;9.60;99.90;;;;;;5104356;28;20727;-65
2023/12/23 04:13:32;;;;;;;15.10;14.60;;;9.60;99.90;;;;;;5106066;28;20237;-65
2023/12/23 04:15:58;;;;;;;15.00;14.50;;;9.60;99.90;;;;;;5114535;28;20197;-65
2023/12/23 04:18:25;;;;;;;14.50;14.00;;;9.60;99.90;;;;;;5113549;28;20221;-65
2023/12/23 04:20:52;;;;;;;14.30;13.80;;;9.60;99.90;;;;;;5110494;28;20217;-64
2023/12/23 04:23:20;;;;;;;14.67;14.17;;;9.60;99.90;;;;;;5108663;28;20198;-64
2023/12/23 04:25:47;;;;;;;13.27;12.87;;;9.60;99.90;;;;;;5104516;28;20202;-64
2023/12/23 04:28:15;;;;;;;14.23;13.73;;;9.60;99.90;;;;;;5110149;28;20209;-64
2023/12/23 04:30:42;;;;;;;13.93;13.43;;;9.60;99.90;;;;;;5110459;28;20212;-65
2023/12/23 04:33:09;;;;;;;14.17;13.67;;;9.60;99.90;;;;;;5112580;28;20528;-65
2023/12/23 04:35:36;;;;;;;16.27;15.67;;;9.60;99.90;;;;;;5109802;28;20604;-64
2023/12/23 04:38:03;;;;;;;14.80;14.30;;;9.60;99.90;;;;;;5117681;27;20523;-65
2023/12/23 04:40:31;;;;;;;13.60;13.10;;;9.50;99.90;;;;;;5113383;28;20234;-65
2023/12/23 04:42:58;;;;;;;13.30;12.90;;;9.50;99.90;;;;;;5113590;27;20271;-64
2023/12/23 04:45:24;;;;;;;13.37;12.90;;;9.60;99.90;;;;;;5114428;27;20320;-65
2023/12/23 04:47:51;;;;;;;12.83;12.43;;;9.60;99.90;;;;;;5115458;27;20209;-66
2023/12/23 04:50:18;;;;;;;13.03;12.63;;;9.60;99.90;;;;;;5110707;28;20221;-65
2023/12/23 04:52:45;;;;;;;12.73;12.33;;;9.60;99.90;;;;;;5113791;27;20221;-65
2023/12/23 04:55:11;;;;;;;13.00;12.60;;;9.60;99.90;;;;;;5122564;27;20568;-64
2023/12/23 04:57:40;;;;;;;13.87;13.37;;;9.70;99.90;;;;;;5113654;28;20663;-65
2023/12/23 05:00:08;;;;;;;12.13;11.73;;;9.70;99.90;;;;;;5121706;27;20224;-63
2023/12/23 05:02:35;;;;;;;13.63;13.17;;;9.70;99.90;;;;;;5115234;27;20222;-65
2023/12/23 05:05:01;;;;;;;14.90;14.40;;;9.70;99.90;;;;;;5116280;27;20649;-65
2023/12/23 05:07:28;;;;;;;13.33;12.93;;;9.60;99.90;;;;;;5117589;27;20209;-64
2023/12/23 05:09:55;;;;;;;12.63;12.23;;;9.60;99.90;;;;;;5113282;27;20649;-65
2023/12/23 05:12:23;;;;;;;12.47;12.07;;;9.60;99.90;;;;;;5111093;27;20198;-64
2023/12/23 05:14:51;;;;;;;12.37;11.97;;;9.60;99.90;;;;;;5108312;28;20259;-65
2023/12/23 05:17:18;;;;;;;12.77;12.37;;;9.70;99.90;;;;;;5115613;28;20297;-65
2023/12/23 05:19:47;;;;;;;12.40;12.00;;;9.70;99.90;;;;;;5117754;27;20252;-64
2023/12/23 05:22:13;;;;;;;12.27;11.87;;;9.70;99.90;;;;;;5108176;27;20275;-64
2023/12/23 05:24:42;;;;;;;11.90;11.50;;;9.70;99.90;;;;;;5121572;27;20209;-64
2023/12/23 05:27:09;;;;;;;12.57;12.17;;;9.70;99.90;;;;;;5116547;28;20292;-63
2023/12/23 05:29:35;;;;;;;12.60;12.10;;;9.70;99.90;;;;;;5114439;28;20254;-65
2023/12/23 05:32:04;;;;;;;12.00;11.60;;;9.70;99.90;;;;;;5117176;28;20202;-65
2023/12/23 05:34:31;;;;;;;12.23;11.83;;;9.70;99.90;;;;;;5117425;27;20199;-65
2023/12/23 05:36:58;;;;;;;11.77;11.37;;;9.70;99.90;;;;;;5132152;27;20205;-64
2023/12/23 05:39:24;;;;;;;12.90;12.50;;;9.70;99.90;;;;;;5119557;27;20676;-64
2023/12/23 05:41:51;;;;;;;12.80;12.40;;;9.70;99.90;;;;;;5113841;27;20229;-66
2023/12/23 05:44:18;;;;;;;12.23;11.83;;;9.70;99.90;;;;;;5114919;27;20669;-64
2023/12/23 05:46:44;;;;;;;12.40;12.00;;;9.70;99.90;;;;;;5113249;28;20218;-65
2023/12/23 05:49:12;;;;;;;12.53;12.13;;;9.70;99.90;;;;;;5115752;27;20229;-65
2023/12/23 05:51:39;;;;;;;12.43;12.03;;;9.70;99.90;;;;;;5122170;27;20201;-65
2023/12/23 05:54:06;;;;;;;12.50;12.10;;;9.80;99.90;;;;;;5113429;28;20202;-63
2023/12/23 05:56:33;;;;;;;12.67;12.27;;;9.70;99.90;;;;;;5111875;28;20203;-63
2023/12/23 05:58:59;;;;;;;13.90;13.40;;;9.70;99.90;;;;;;5112267;28;20237;-61
2023/12/23 06:01:26;;;;;;;11.93;11.53;;;9.70;99.90;;;;;;5111314;28;20222;-62
2023/12/23 06:03:53;;;;;;;12.20;11.80;;;9.80;99.90;;;;;;5119243;27;20682;-63
2023/12/23 06:06:21;;;;;;;12.70;12.30;;;9.80;99.90;;;;;;5125807;27;20198;-62
2023/12/23 06:08:48;;;;;;;11.57;11.18;;;9.90;99.90;;;;;;5124411;27;20240;-62
2023/12/23 06:11:15;;;;;;;11.63;11.23;;;9.90;99.90;;;;;;5127188;27;20299;-62
2023/12/23 06:13:41;;;;;;;11.80;11.40;;;9.90;99.90;;;;;;5123621;27;20206;-65
2023/12/23 06:16:09;;;;;;;11.60;11.20;;;9.90;99.90;;;;;;5123397;27;20209;-65
2023/12/23 06:18:35;;;;;;;11.53;11.13;;;9.90;99.90;;;;;;5123826;27;20568;-65
2023/12/23 06:21:02;;;;;;;13.50;12.90;;;9.90;99.90;;;;;;5125187;27;20229;-63
2023/12/23 06:23:30;;;;;;;11.63;11.23;;;9.90;99.90;;;;;;5123430;27;20554;-64
2023/12/23 06:25:57;;;;;;;11.50;11.10;;;9.90;99.90;;;;;;5124502;27;20304;-64
2023/12/23 06:28:24;;;;;;;11.33;10.93;;;9.90;99.90;;;;;;5125524;27;20205;-64
2023/12/23 06:30:51;;;;;;;11.60;11.20;;;9.90;99.90;;;;;;5125441;27;20307;-64
2023/12/23 06:33:18;;;;;;;12.20;11.80;;;9.90;99.90;;;;;;5126646;27;20213;-65
2023/12/23 06:35:44;;;;;;;11.60;11.20;;;9.90;99.90;;;;;;5125490;27;20599;-65
2023/12/23 06:38:13;;;;;;;12.00;11.60;;;9.80;99.90;;;;;;5129122;27;20197;-63
2023/12/23 06:40:41;;;;;;;12.03;11.63;;;9.90;99.90;;;;;;5122914;27;20222;-65
2023/12/23 06:43:08;;;;;;;11.80;11.40;;;9.90;99.90;;;;;;5125946;27;20206;-66
2023/12/23 06:45:35;;;;;;;12.60;12.20;;;9.90;99.90;;;;;;5126384;27;20204;-66
2023/12/23 06:48:01;;;;;;;11.83;11.43;;;9.90;99.90;;;;;;5120470;27;20201;-64
2023/12/23 06:50:28;;;;;;;13.03;12.43;;;9.90;99.90;;;;;;5121980;27;20229;-65
2023/12/23 06:52:55;;;;;;;12.40;12.00;;;9.90;99.90;;;;;;5123697;27;20601;-64
2023/12/23 06:55:21;;;;;;;12.30;11.90;;;9.90;99.90;;;;;;5128066;27;20205;-64
2023/12/23 06:57:52;;;;;;;12.30;11.90;;;9.90;99.90;;;;;;5122692;27;20679;-65
2023/12/23 07:00:19;;;;;;;13.07;12.47;;;9.90;99.90;;;;;;5119810;27;20230;-65
2023/12/23 07:02:46;;;;;;;12.40;12.00;;;9.90;99.90;;;;;;5118068;27;20311;-66
2023/12/23 07:05:13;;;;;;;11.97;11.57;;;9.80;99.90;;;;;;5113582;27;20198;-64
2023/12/23 07:07:39;;;;;;;15.83;15.27;;;9.80;99.90;;;;;;5128299;27;20209;-64
2023/12/23 07:10:07;;;;;;;12.40;12.00;;;9.80;99.90;;;;;;5121526;27;20222;-65
2023/12/23 07:12:34;;;;;;;12.30;11.90;;;9.80;99.90;;;;;;5127964;27;20676;-63
2023/12/23 07:15:03;;;;;;;12.80;12.40;;;9.80;99.90;;;;;;5121659;27;20214;-66
2023/12/23 07:17:29;;;;;;;12.70;12.30;;;9.80;99.90;;;;;;5129087;27;20217;-65
2023/12/23 07:19:56;;;;;;;12.40;12.00;;;9.80;99.90;;;;;;5121214;27;20233;-66
2023/12/23 07:22:23;;;;;;;12.73;12.23;;;9.80;99.90;;;;;;5112924;27;20222;-65
2023/12/23 07:24:49;;;;;;;12.47;12.07;;;9.70;99.90;;;;;;5115882;27;20225;-65
2023/12/23 07:27:16;;;;;;;12.30;11.90;;;9.80;99.90;;;;;;5117514;27;20210;-65
2023/12/23 07:29:43;;;;;;;12.47;12.07;;;9.80;99.90;;;;;;5115319;28;20234;-65
2023/12/23 07:32:11;;;;;;;12.77;12.37;;;9.80;99.90;;;;;;5112694;27;20217;-66
2023/12/23 07:34:38;;;;;;;12.27;11.87;;;9.90;99.90;;;;;;5116211;28;20565;-66
2023/12/23 07:37:05;;;;;;;12.10;11.70;;;9.80;99.90;;;;;;5121375;28;20217;-66
2023/12/23 07:39:31;;;;;;;12.50;12.00;;;9.80;99.90;;;;;;5123923;27;20221;-64
2023/12/23 07:41:58;;;;;;;12.50;12.10;;;9.80;99.90;;;;;;5122644;28;20564;-65
2023/12/23 07:44:25;;;;;;;11.57;11.17;;;9.80;99.90;;;;;;5123753;27;20205;-65
2023/12/23 07:46:51;;;;;;;11.90;11.50;;;9.90;99.90;;;;;;5118877;27;20211;-65
2023/12/23 07:49:19;;;;;;;11.33;10.93;;;9.90;99.90;;;;;;5130102;27;20246;-64
2023/12/23 07:51:46;;;;;;;12.17;11.77;;;9.90;99.90;;;;;;5128588;27;20207;-63
2023/12/23 07:54:14;;;;;;;11.53;11.13;;;9.90;99.90;;;;;;5139274;27;20205;-64
2023/12/23 07:56:40;;;;;;;11.67;11.27;;;10.00;99.90;;;;;;5135114;27;20248;-65
2023/12/23 07:59:07;;;;;;;11.30;10.90;;;10.00;99.90;;;;;;5123570;27;20217;-64
2023/12/23 08:01:34;;;;;;;11.37;10.97;;;10.00;99.90;;;;;;5131586;27;20218;-64
2023/12/23 08:04:00;;;;;;;11.70;11.30;;;10.00;99.90;;;;;;5122968;27;20206;-64
2023/12/23 08:06:28;;;;;;;11.57;11.17;;;10.00;99.90;;;;;;5127669;27;20194;-64
2023/12/23 08:08:55;;;;;;;11.07;10.67;;;10.00;99.90;;;;;;5121038;27;20221;-64
2023/12/23 08:11:22;;;;;;;11.70;11.30;;;10.00;99.90;;;;;;5129175;27;20216;-64
2023/12/23 08:13:49;;;;;;;11.83;11.43;;;10.00;99.90;;;;;;5125339;27;20690;-64
2023/12/23 08:16:15;;;;;;;11.07;10.67;;;10.00;99.90;;;;;;5115111;27;20198;-64
2023/12/23 08:18:42;;;;;;;11.50;11.10;;;10.00;99.90;;;;;;5125515;27;20253;-64
2023/12/23 08:21:09;;;;;;;11.30;10.90;;;10.00;99.90;;;;;;5117691;27;20618;-62
2023/12/23 08:23:37;;;;;;;11.43;11.03;;;10.00;99.90;;;;;;5119425;28;20228;-65
2023/12/23 08:26:04;;;;;;;11.73;11.33;;;10.10;99.90;;;;;;5120163;28;20212;-66
2023/12/23 08:28:31;;;;;;;11.63;11.23;;;10.10;99.90;;;;;;5125971;27;20206;-64
2023/12/23 08:30:58;;;;;;;11.43;11.03;;;10.00;99.90;;;;;;5124206;27;20236;-66
2023/12/23 08:33:24;;;;;;;11.63;11.23;;;10.00;99.90;;;;;;5125024;27;20683;-65
2023/12/23 08:35:51;;;;;;;11.70;11.30;;;10.00;99.90;;;;;;5129074;27;20204;-65
2023/12/23 08:38:18;;;;;;;11.63;11.23;;;10.00;99.90;;;;;;5138603;28;20201;-64
2023/12/23 08:40:46;;;;;;;13.63;13.13;;;10.00;99.90;;;;;;5132137;28;20636;-64
2023/12/23 08:43:12;;;;;;;11.90;11.50;;;10.00;99.90;;;;;;5128959;28;20220;-63
2023/12/23 08:45:39;;;;;;;11.90;11.50;;;10.00;99.90;;;;;;5125385;27;20198;-65
2023/12/23 08:48:06;;;;;;;27.23;26.17;;;10.00;99.90;;;;;;5113265;28;20252;-66
2023/12/23 08:50:33;;;;;;;11.80;11.40;;;10.00;99.90;;;;;;5119959;28;20229;-64
2023/12/23 08:53:00;;;;;;;11.53;11.13;;;10.10;99.90;;;;;;5111936;28;20561;-65
2023/12/23 08:55:27;;;;;;;11.93;11.53;;;10.10;99.90;;;;;;5112436;28;20217;-65
2023/12/23 08:57:55;;;;;;;11.43;11.03;;;10.10;99.90;;;;;;5115958;27;20286;-63
2023/12/23 09:00:21;;;;;;;11.77;11.37;;;10.10;99.90;;;;;;5116370;28;20597;-64
2023/12/23 09:02:48;;;;;;;11.77;11.37;;;10.10;99.90;;;;;;5110684;28;20226;-64
2023/12/23 09:05:15;;;;;;;11.30;10.90;;;10.10;99.90;;;;;;5121780;28;20205;-66
2023/12/23 09:07:42;;;;;;;12.00;11.60;;;10.10;99.90;;;;;;5119980;28;20285;-64
2023/12/23 09:10:09;;;;;;;11.60;11.20;;;10.10;99.90;;;;;;5121221;28;20790;-66
2023/12/23 09:12:36;;;;;;;11.23;10.83;;;10.20;99.90;;;;;;5120918;27;20197;-65
2023/12/23 09:15:05;;;;;;;11.20;10.80;;;10.20;99.90;;;;;;5114172;28;20278;-64
2023/12/23 09:17:32;;;;;;;11.83;11.43;;;10.20;99.90;;;;;;5106739;28;20206;-65
2023/12/23 09:19:59;;;;;;;11.30;10.90;;;10.20;99.90;;;;;;5113999;28;20233;-66
2023/12/23 09:22:26;;;;;;;11.53;11.13;;;10.20;99.90;;;;;;5125181;27;20214;-64
2023/12/23 09:24:52;;;;;;;11.33;10.93;;;10.30;99.90;;;;;;5134373;27;20205;-64
2023/12/23 09:27:19;;;;;;;11.70;11.30;;;10.20;99.90;;;;;;5120529;27;20505;-65
2023/12/23 09:29:46;;;;;;;11.20;10.80;;;10.30;99.90;;;;;;5131022;27;20225;-64
2023/12/23 09:32:14;;;;;;;12.70;12.30;;;10.30;99.90;;;;;;5119673;27;20213;-64
2023/12/23 09:34:41;;;;;;;12.30;11.90;;;10.30;99.90;;;;;;5120779;27;20292;-63
2023/12/23 09:37:08;;;;;;;11.40;11.00;;;10.40;99.90;;;;;;5113625;27;20202;-63
2023/12/23 09:39:35;;;;;;;11.20;10.80;;;10.40;99.90;;;;;;5117492;27;20232;-64
2023/12/23 09:42:01;;;;;;;12.10;11.70;;;10.40;99.90;;;;;;5123669;27;20217;-65
2023/12/23 09:44:28;;;;;;;10.90;10.50;;;10.40;99.90;;;;;;5123025;27;21000;-65
2023/12/23 09:46:55;;;;;;;11.70;11.30;;;10.40;99.90;;;;;;5119803;27;20228;-63
2023/12/23 09:49:24;;;;;;;11.40;11.00;;;10.50;99.90;;;;;;5121214;27;20245;-63
2023/12/23 09:51:51;;;;;;;12.30;11.90;;;10.40;99.90;;;;;;5113582;27;20225;-65
2023/12/23 09:54:24;;;;;;;13.03;12.53;;;10.50;99.90;;;;;;5129865;27;20227;-63
2023/12/23 09:56:51;;;;;;;11.80;11.40;;;10.50;99.90;;;;;;5117006;27;20274;-63
2023/12/23 09:59:18;;;;;;;11.30;10.90;;;10.40;99.90;;;;;;5117271;27;20222;-63
2023/12/23 10:01:45;;;;;;;11.40;11.00;;;10.30;99.90;;;;;;5116593;27;20205;-63
2023/12/23 10:04:12;;;;;;;11.60;11.20;;;10.30;99.90;;;;;;5123097;27;20250;-63
2023/12/23 10:06:40;;;;;;;11.13;10.73;;;10.30;99.90;;;;;;5121422;27;20230;-64
2023/12/23 10:09:09;;;;;;;12.17;11.77;;;10.30;99.90;;;;;;5122949;27;20251;-64
2023/12/23 10:11:36;;;;;;;11.33;10.93;;;10.20;99.90;;;;;;5133023;27;20297;-64
2023/12/23 10:14:02;;;;;;;10.93;10.53;;;10.20;99.90;;;;;;5113033;27;20626;-64
2023/12/23 10:16:29;;;;;;;11.40;11.00;;;10.20;99.90;;;;;;5111111;28;20202;-65
2023/12/23 10:18:56;;;;;;;11.43;11.03;;;10.30;99.90;;;;;;5113915;27;20584;-65
2023/12/23 10:21:23;;;;;;;11.20;10.80;;;10.30;99.90;;;;;;5122655;27;20201;-63
2023/12/23 10:23:53;;;;;;;11.02;10.63;;;10.30;99.90;;;;;;5123720;27;20226;-64
2023/12/23 10:26:20;;;;;;;11.00;10.60;;;10.30;99.90;;;;;;5126925;27;20559;-65
2023/12/23 10:28:53;;;;;;;14.47;13.97;;;10.30;99.90;;;;;;5124495;27;20248;-64
2023/12/23 10:31:25;;;;;;;10.67;10.30;;;10.30;99.90;;;;;;5120211;27;20206;-66
2023/12/23 10:33:59;;;;;;;14.50;14.00;;;10.30;99.90;;;;;;5120435;27;20219;-64
2023/12/23 10:36:26;;;;;;;11.07;10.67;;;10.30;99.90;;;;;;5111812;27;20194;-64
2023/12/23 10:39:01;;;;;;;10.80;10.40;;;10.40;99.90;;;;;;5122860;27;20220;-65
2023/12/23 10:41:40;;;;;;;13.27;12.80;;;10.40;99.90;;;;;;5116501;27;20560;-66
2023/12/23 10:44:09;;;;;;;11.37;10.97;;;10.40;99.90;;;;;;5119783;27;20685;-65
2023/12/23 10:46:37;;;;;;;11.60;11.20;;;10.40;99.90;;;;;;5112622;27;20225;-65
2023/12/23 10:49:06;;;;;;;11.47;11.07;;;10.40;99.90;;;;;;5114242;27;20688;-63
2023/12/23 10:51:33;;;;;;;11.70;11.30;;;10.40;99.90;;;;;;5116191;27;20348;-63
2023/12/23 10:54:03;;;;;;;11.10;10.70;;;10.30;99.90;;;;;;5114290;27;20225;-64
2023/12/23 10:56:31;;;;;;;10.97;10.57;;;10.40;99.90;;;;;;5116878;27;20757;-64
2023/12/23 10:58:58;;;;;;;11.38;10.98;;;10.30;99.90;;;;;;5118024;27;20248;-65
2023/12/23 11:01:28;;;;;;;12.13;11.73;;;10.40;99.90;;;;;;5121679;28;20213;-63
2023/12/23 11:03:59;;;;;;;10.77;10.43;;;10.30;99.90;;;;;;5127244;28;20210;-64
2023/12/23 11:06:29;;;;;;;11.20;10.80;;;10.40;99.90;;;;;;5117619;27;20213;-63
2023/12/23 11:08:58;;;;;;;10.97;10.57;;;10.40;99.90;;;;;;5135666;27;20221;-63
2023/12/23 11:11:26;;;;;;;10.57;10.27;;;10.50;99.90;;;;;;5128680;27;20194;-63
2023/12/23 11:13:53;;;;;;;11.70;11.30;;;10.50;99.90;;;;;;5133009;27;20201;-64
2023/12/23 11:16:22;;;;;;;11.37;10.97;;;10.60;99.90;;;;;;5132539;27;20212;-64
2023/12/23 11:18:52;;;;;;;11.10;10.70;;;10.50;99.90;;;;;;5129896;27;20237;-65
2023/12/23 11:21:19;;;;;;;11.00;10.60;;;10.50;99.90;;;;;;5134847;27;20206;-65
2023/12/23 11:23:47;;;;;;;11.20;10.80;;;10.50;99.90;;;;;;5131932;27;20229;-64
2023/12/23 11:26:41;;;;;;;13.00;12.60;;;10.50;99.90;;;;;;5118997;27;20225;-65
2023/12/23 11:29:09;;;;;;;11.30;10.90;;;10.60;99.90;;;;;;5114613;27;20224;-64
2023/12/23 11:31:36;;;;;;;11.07;10.67;;;10.60;99.90;;;;;;5115549;27;20216;-65
2023/12/23 11:34:13;;;;;;;11.33;10.93;;;10.60;99.90;;;;;;5113567;27;20198;-65
2023/12/23 11:36:41;;;;;;;11.30;10.90;;;10.60;99.90;;;;;;5114748;27;20208;-65
2023/12/23 11:39:10;;;;;;;11.30;10.90;;;10.70;99.90;;;;;;5114162;28;20722;-65
2023/12/23 11:41:45;;;;;;;11.30;10.90;;;10.70;99.90;;;;;;5118499;27;20292;-65
2023/12/23 11:44:12;;;;;;;11.73;11.33;;;10.70;99.90;;;;;;5113306;27;20205;-63
2023/12/23 11:46:40;;;;;;;14.17;13.67;;;10.70;99.90;;;;;;5112387;27;20289;-64
2023/12/23 11:49:09;;;;;;;11.50;11.10;;;10.70;99.90;;;;;;5113821;27;20244;-64
2023/12/23 11:51:37;;;;;;;13.60;13.10;;;10.70;99.90;;;;;;5116302;27;20213;-63
2023/12/23 11:54:04;;;;;;;11.63;11.23;;;10.50;99.90;;;;;;5111700;27;20205;-64
2023/12/23 11:56:31;;;;;;;11.47;11.07;;;10.60;99.90;;;;;;5116794;27;20213;-63
2023/12/23 11:59:01;;;;;;;11.33;10.93;;;10.50;99.90;;;;;;5111876;27;20224;-65
2023/12/23 12:01:28;;;;;;;12.20;11.80;;;10.50;99.90;;;;;;5113652;27;20221;-65
2023/12/23 12:03:55;;;;;;;11.50;11.10;;;10.50;99.90;;;;;;5110625;28;20221;-64
2023/12/23 12:06:22;;;;;;;11.20;10.80;;;10.50;99.90;;;;;;5115891;27;20201;-63
2023/12/23 12:08:49;;;;;;;11.77;11.37;;;10.50;99.90;;;;;;5116306;27;20225;-64
2023/12/23 12:11:18;;;;;;;11.90;11.50;;;10.60;99.90;;;;;;5116541;27;20237;-63
2023/12/23 12:13:46;;;;;;;14.80;14.30;;;10.70;99.90;;;;;;5106886;27;20285;-64
2023/12/23 12:16:14;;;;;;;11.50;11.10;;;10.70;99.90;;;;;;5109664;27;20202;-64
2023/12/23 12:18:41;;;;;;;14.07;13.57;;;10.70;99.90;;;;;;5112309;27;20624;-64
2023/12/23 12:21:08;;;;;;;11.27;10.87;;;10.70;99.90;;;;;;5110571;28;20267;-64
2023/12/23 12:23:35;;;;;;;11.80;11.40;;;10.70;99.90;;;;;;5112286;28;20226;-66
2023/12/23 12:26:03;;;;;;;11.53;11.13;;;10.70;99.90;;;;;;5111607;28;20206;-65
2023/12/23 12:28:31;;;;;;;11.60;11.13;;;10.70;99.90;;;;;;5111774;28;20233;-63
2023/12/23 12:31:10;;;;;;;11.30;10.90;;;10.70;99.90;;;;;;5114433;28;20206;-64